createdAt,value
2022-08-20T00:00:41.961Z,83.31
2022-08-20T00:03:14.271Z,82.73
2022-08-20T00:05:43.895Z,82.44
2022-08-20T00:08:11.433Z,82.37
2022-08-20T00:10:40.963Z,83.34
2022-08-20T00:13:10.692Z,82.80
2022-08-20T00:15:41.811Z,82.35
2022-08-20T00:18:09.091Z,82.84
2022-08-20T00:20:42.509Z,82.56
2022-08-20T00:23:10.597Z,82.48
2022-08-20T00:25:37.260Z,82.08
2022-08-20T00:28:04.530Z,82.33
2022-08-20T00:30:32.252Z,81.95
2022-08-20T00:33:01.962Z,82.94
2022-08-20T00:35:31.821Z,82.47
2022-08-20T00:38:00.734Z,82.05
2022-08-20T00:40:41.866Z,82.48
2022-08-20T00:43:41.723Z,82.54
2022-08-20T00:46:16.931Z,82.25
2022-08-20T00:48:47.862Z,82.26
2022-08-20T00:51:23.434Z,82.02
2022-08-20T00:53:49.964Z,82.15
2022-08-20T00:56:16.997Z,82.84
2022-08-20T00:58:45.199Z,83.47
2022-08-20T01:01:12.231Z,83.43
2022-08-20T01:03:39.804Z,83.19
2022-08-20T01:06:06.557Z,83.95
2022-08-20T01:08:33.100Z,83.72
2022-08-20T01:11:10.458Z,84.31
2022-08-20T01:13:39.504Z,85.23
2022-08-20T01:16:14.730Z,84.87
2022-08-20T01:18:46.378Z,83.82
2022-08-20T01:21:13.411Z,83.44
2022-08-20T01:23:43.257Z,83.21
2022-08-20T01:26:16.964Z,83.36
2022-08-20T01:28:57.636Z,83.21
2022-08-20T01:31:27.819Z,83.15
2022-08-20T01:33:55.829Z,83.05
2022-08-20T01:36:31.722Z,83.95
2022-08-20T01:39:00.099Z,84.01
2022-08-20T01:41:47.910Z,84.52
2022-08-20T01:44:16.806Z,84.18
2022-08-20T01:46:47.520Z,83.94
2022-08-20T01:49:21.052Z,85.19
2022-08-20T01:51:50.778Z,85.26
2022-08-20T01:54:17.463Z,85.93
2022-08-20T01:57:14.357Z,84.44
2022-08-20T01:59:41.994Z,85.90
2022-08-20T02:02:10.034Z,86.47
2022-08-20T02:04:37.357Z,86.34
2022-08-20T02:07:05.621Z,85.75
2022-08-20T02:09:36.283Z,86.58
2022-08-20T02:12:03.701Z,85.47
2022-08-20T02:14:30.772Z,84.80
2022-08-20T02:16:58.569Z,84.06
2022-08-20T02:19:35.415Z,83.87
2022-08-20T02:22:05.512Z,84.02
2022-08-20T02:24:32.236Z,84.62
2022-08-20T02:26:58.759Z,85.35
2022-08-20T02:29:26.233Z,84.76
2022-08-20T02:32:28.358Z,84.70
2022-08-20T02:34:41.448Z,84.05
2022-08-20T02:37:08.406Z,83.97
2022-08-20T02:39:35.534Z,84.68
2022-08-20T02:42:05.271Z,84.73
2022-08-20T02:44:32.218Z,85.08
2022-08-20T02:46:59.961Z,84.56
2022-08-20T02:49:26.555Z,85.00
2022-08-20T02:51:53.045Z,84.91
2022-08-20T02:54:19.580Z,85.50
2022-08-20T02:56:46.164Z,85.70
2022-08-20T02:59:19.063Z,85.75
2022-08-20T03:01:46.553Z,86.35
2022-08-20T03:04:26.235Z,85.89
2022-08-20T03:06:52.921Z,85.65
2022-08-20T03:09:19.487Z,85.99
2022-08-20T03:11:45.998Z,85.91
2022-08-20T03:14:12.509Z,85.94
2022-08-20T03:16:39.005Z,86.43
2022-08-20T03:19:05.520Z,86.32
2022-08-20T03:21:32.477Z,86.33
2022-08-20T03:23:58.961Z,86.68
2022-08-20T03:26:25.457Z,86.90
2022-08-20T03:28:51.957Z,86.50
2022-08-20T03:31:18.926Z,86.49
2022-08-20T03:33:52.764Z,86.11
2022-08-20T03:36:22.288Z,85.95
2022-08-20T03:38:59.160Z,86.17
2022-08-20T03:41:26.148Z,85.01
2022-08-20T03:43:52.807Z,85.74
2022-08-20T03:46:23.264Z,85.50
2022-08-20T03:48:56.336Z,85.33
2022-08-20T03:51:26.508Z,85.21
2022-08-20T03:53:53.053Z,84.32
2022-08-20T03:56:19.520Z,84.19
2022-08-20T03:58:46.424Z,84.12
2022-08-20T04:01:44.355Z,83.58
2022-08-20T04:03:59.872Z,83.35
2022-08-20T04:06:29.137Z,83.12
2022-08-20T04:08:56.684Z,83.79
2022-08-20T04:11:24.223Z,83.59
2022-08-20T04:13:50.823Z,83.22
2022-08-20T04:16:18.081Z,82.97
2022-08-20T04:19:01.730Z,83.23
2022-08-20T04:21:33.111Z,83.11
2022-08-20T04:24:00.510Z,83.15
2022-08-20T04:26:27.017Z,83.47
2022-08-20T04:28:55.883Z,83.49
2022-08-20T04:31:25.414Z,83.75
2022-08-20T04:33:52.174Z,83.07
2022-08-20T04:36:18.656Z,83.11
2022-08-20T04:38:48.402Z,83.32
2022-08-20T04:41:23.585Z,83.14
2022-08-20T04:43:53.006Z,84.07
2022-08-20T04:46:20.556Z,83.53
2022-08-20T04:48:48.802Z,84.03
2022-08-20T04:51:16.821Z,83.39
2022-08-20T04:53:44.597Z,83.30
2022-08-20T04:56:19.759Z,83.63
2022-08-20T04:58:48.762Z,83.32
2022-08-20T05:01:15.539Z,84.08
2022-08-20T05:03:42.702Z,83.97
2022-08-20T05:06:11.417Z,83.20
2022-08-20T05:08:38.666Z,83.79
2022-08-20T05:11:33.635Z,83.73
2022-08-20T05:13:53.913Z,83.74
2022-08-20T05:16:21.417Z,84.86
2022-08-20T05:18:52.185Z,84.60
2022-08-20T05:21:20.440Z,83.40
2022-08-20T05:23:46.952Z,83.72
2022-08-20T05:26:16.048Z,83.56
2022-08-20T05:28:57.965Z,83.35
2022-08-20T05:31:31.863Z,83.24
2022-08-20T05:34:12.134Z,82.94
2022-08-20T05:36:40.882Z,83.20
2022-08-20T05:39:08.914Z,83.06
2022-08-20T05:41:36.360Z,82.73
2022-08-20T05:44:03.315Z,82.53
2022-08-20T05:46:31.937Z,82.28
2022-08-20T05:49:00.165Z,82.45
2022-08-20T05:51:28.275Z,83.94
2022-08-20T05:53:54.889Z,83.97
2022-08-20T05:56:26.882Z,83.55
2022-08-20T05:58:53.763Z,82.97
2022-08-20T06:01:20.298Z,83.08
2022-08-20T06:04:05.337Z,84.03
2022-08-20T06:06:44.103Z,83.74
2022-08-20T06:09:13.834Z,83.09
2022-08-20T06:11:40.401Z,83.23
2022-08-20T06:14:06.893Z,84.19
2022-08-20T06:16:33.500Z,84.05
2022-08-20T06:19:02.655Z,84.36
2022-08-20T06:21:29.881Z,84.93
2022-08-20T06:23:59.206Z,83.89
2022-08-20T06:26:29.725Z,84.22
2022-08-20T06:28:56.590Z,84.27
2022-08-20T06:31:23.191Z,83.69
2022-08-20T06:33:49.996Z,84.32
2022-08-20T06:36:18.700Z,83.27
2022-08-20T06:38:46.572Z,82.25
2022-08-20T06:41:14.147Z,82.81
2022-08-20T06:43:40.763Z,82.47
2022-08-20T06:46:07.586Z,82.80
2022-08-20T06:48:34.280Z,81.96
2022-08-20T06:51:01.472Z,82.36
2022-08-20T06:53:29.006Z,81.61
2022-08-20T06:56:00.601Z,81.68
2022-08-20T06:58:35.666Z,81.40
2022-08-20T07:01:10.563Z,81.16
2022-08-20T07:03:38.996Z,81.31
2022-08-20T07:06:06.633Z,80.13
2022-08-20T07:08:33.598Z,80.40
2022-08-20T07:11:00.082Z,78.73
2022-08-20T07:13:26.748Z,79.40
2022-08-20T07:15:54.028Z,79.31
2022-08-20T07:18:28.277Z,77.41
2022-08-20T07:20:57.249Z,77.72
2022-08-20T07:23:26.314Z,76.86
2022-08-20T07:25:53.657Z,74.92
2022-08-20T07:28:23.553Z,76.95
2022-08-20T07:31:13.357Z,78.32
2022-08-20T07:33:41.451Z,77.13
2022-08-20T07:36:09.035Z,77.14
2022-08-20T07:38:36.654Z,74.05
2022-08-20T07:41:13.527Z,76.13
2022-08-20T07:43:40.935Z,74.56
2022-08-20T07:46:08.998Z,76.36
2022-08-20T07:48:41.784Z,76.13
2022-08-20T07:51:10.965Z,75.12
2022-08-20T07:53:39.850Z,76.19
2022-08-20T07:56:14.158Z,72.23
2022-08-20T07:58:49.653Z,71.52
2022-08-20T08:01:29.654Z,73.94
2022-08-20T08:03:57.605Z,74.87
2022-08-20T08:06:29.082Z,72.11
2022-08-20T08:09:09.860Z,72.15
2022-08-20T08:11:39.933Z,72.55
2022-08-20T08:14:10.173Z,67.57
2022-08-20T08:16:37.137Z,69.90
2022-08-20T08:19:06.793Z,69.71
2022-08-20T08:21:33.293Z,71.05
2022-08-20T08:23:59.812Z,72.47
2022-08-20T08:26:28.828Z,69.72
2022-08-20T08:28:55.742Z,71.57
2022-08-20T08:31:22.323Z,69.02
2022-08-20T08:33:48.801Z,69.11
2022-08-20T08:36:16.219Z,66.94
2022-08-20T08:38:45.523Z,63.50
2022-08-20T08:41:31.891Z,66.26
2022-08-20T08:44:08.208Z,69.99
2022-08-20T08:46:44.067Z,69.64
2022-08-20T08:49:14.752Z,66.11
2022-08-20T08:52:22.299Z,67.61
2022-08-20T08:54:53.411Z,68.71
2022-08-20T08:57:20.156Z,67.24
2022-08-20T09:00:04.408Z,66.68
2022-08-20T09:02:35.218Z,63.05
2022-08-20T09:05:13.326Z,66.03
2022-08-20T09:07:39.931Z,66.16
2022-08-20T09:10:07.214Z,62.08
2022-08-20T09:12:34.028Z,58.31
2022-08-20T09:15:01.443Z,61.84
2022-08-20T09:17:28.027Z,61.04
2022-08-20T09:19:54.552Z,63.19
2022-08-20T09:22:25.915Z,61.65
2022-08-20T09:24:53.266Z,60.75
2022-08-20T09:27:19.827Z,60.60
2022-08-20T09:29:46.685Z,59.90
2022-08-20T09:32:21.672Z,60.39
2022-08-20T09:34:56.468Z,63.04
2022-08-20T09:37:32.386Z,59.72
2022-08-20T09:40:01.235Z,58.85
2022-08-20T09:42:37.528Z,57.72
2022-08-20T09:45:10.905Z,50.21
2022-08-20T09:47:38.766Z,61.74
2022-08-20T09:50:10.908Z,57.64
2022-08-20T09:52:41.303Z,51.62
2022-08-20T09:55:22.241Z,57.76
2022-08-20T09:57:51.022Z,56.17
2022-08-20T10:00:18.532Z,55.93
2022-08-20T10:02:45.978Z,56.95
2022-08-20T10:05:13.250Z,53.43
2022-08-20T10:07:40.227Z,57.83
2022-08-20T10:10:10.471Z,56.26
2022-08-20T10:12:37.024Z,56.40
2022-08-20T10:15:04.190Z,53.53
2022-08-20T10:17:30.874Z,51.89
2022-08-20T10:19:57.331Z,46.81
2022-08-20T10:22:24.491Z,56.30
2022-08-20T10:24:50.957Z,53.28
2022-08-20T10:27:17.391Z,53.15
2022-08-20T10:29:46.904Z,53.78
2022-08-20T10:32:16.040Z,49.17
2022-08-20T10:34:44.752Z,53.49
2022-08-20T10:37:16.075Z,53.45
2022-08-20T10:39:42.703Z,48.66
2022-08-20T10:42:09.230Z,52.21
2022-08-20T10:44:35.766Z,51.74
2022-08-20T10:47:29.664Z,51.99
2022-08-20T10:49:58.095Z,50.52
2022-08-20T10:52:26.145Z,50.38
2022-08-20T10:54:53.909Z,48.31
2022-08-20T10:57:28.031Z,52.37
2022-08-20T10:59:57.438Z,47.70
2022-08-20T11:02:25.155Z,53.48
2022-08-20T11:04:52.558Z,44.83
2022-08-20T11:07:49.871Z,46.46
2022-08-20T11:10:16.635Z,49.76
2022-08-20T11:12:46.063Z,50.17
2022-08-20T11:15:13.559Z,43.63
2022-08-20T11:17:42.444Z,44.38
2022-08-20T11:20:10.622Z,45.89
2022-08-20T11:22:37.726Z,48.85
2022-08-20T11:25:06.589Z,52.71
2022-08-20T11:27:36.802Z,54.02
2022-08-20T11:30:08.455Z,53.05
2022-08-20T11:32:35.493Z,52.50
2022-08-20T11:35:13.809Z,53.47
2022-08-20T11:37:48.716Z,54.54
2022-08-20T11:40:15.285Z,56.54
2022-08-20T11:43:04.411Z,52.21
2022-08-20T11:45:28.413Z,52.98
2022-08-20T11:47:54.904Z,49.96
2022-08-20T11:50:22.050Z,45.89
2022-08-20T11:52:48.749Z,47.26
2022-08-20T11:55:17.096Z,50.72
2022-08-20T11:57:46.938Z,50.23
2022-08-20T12:00:21.771Z,52.69
2022-08-20T12:02:59.311Z,52.09
2022-08-20T12:05:27.383Z,51.45
2022-08-20T12:07:54.023Z,55.31
2022-08-20T12:10:20.615Z,54.98
2022-08-20T12:12:47.131Z,55.68
2022-08-20T12:15:13.702Z,48.25
2022-08-20T12:17:40.253Z,52.85
2022-08-20T12:20:10.529Z,56.12
2022-08-20T12:22:37.183Z,56.29
2022-08-20T12:25:05.641Z,54.68
2022-08-20T12:27:33.556Z,52.04
2022-08-20T12:30:07.206Z,50.06
2022-08-20T12:32:35.452Z,52.16
2022-08-20T12:35:02.485Z,54.19
2022-08-20T12:37:31.201Z,50.70
2022-08-20T12:40:00.646Z,52.76
2022-08-20T12:42:30.306Z,51.91
2022-08-20T12:44:57.732Z,50.17
2022-08-20T12:47:30.796Z,49.61
2022-08-20T12:50:01.905Z,50.19
2022-08-20T12:52:30.071Z,46.62
2022-08-20T12:54:57.922Z,48.52
2022-08-20T12:57:24.328Z,50.32
2022-08-20T12:59:50.928Z,49.30
2022-08-20T13:02:20.038Z,52.43
2022-08-20T13:04:46.672Z,51.54
2022-08-20T13:07:14.504Z,52.96
2022-08-20T13:09:42.722Z,53.37
2022-08-20T13:12:10.316Z,51.35
2022-08-20T13:14:38.398Z,53.47
2022-08-20T13:17:05.459Z,53.87
2022-08-20T13:19:34.827Z,54.49
2022-08-20T13:22:01.548Z,53.08
2022-08-20T13:24:28.334Z,53.49
2022-08-20T13:26:54.829Z,53.48
2022-08-20T13:29:21.350Z,53.03
2022-08-20T13:31:47.838Z,53.36
2022-08-20T13:34:14.247Z,53.50
2022-08-20T13:36:40.815Z,52.55
2022-08-20T13:39:07.797Z,53.14
2022-08-20T13:41:34.654Z,54.21
2022-08-20T13:44:01.378Z,51.62
2022-08-20T13:46:28.050Z,50.27
2022-08-20T13:48:54.542Z,54.02
2022-08-20T13:51:21.760Z,52.55
2022-08-20T13:53:48.411Z,49.01
2022-08-20T13:56:14.908Z,47.13
2022-08-20T13:58:41.403Z,53.70
2022-08-20T14:01:07.956Z,51.87
2022-08-20T14:03:35.051Z,51.18
2022-08-20T14:06:03.330Z,53.17
2022-08-20T14:08:29.814Z,52.40
2022-08-20T14:10:57.177Z,47.16
2022-08-20T14:13:26.009Z,48.56
2022-08-20T14:15:52.740Z,51.16
2022-08-20T14:18:19.986Z,50.16
2022-08-20T14:20:46.667Z,47.11
2022-08-20T14:23:14.318Z,50.09
2022-08-20T14:25:41.471Z,51.36
2022-08-20T14:28:18.055Z,49.60
2022-08-20T14:30:46.081Z,49.45
2022-08-20T14:33:19.008Z,48.35
2022-08-20T14:35:45.456Z,49.19
2022-08-20T14:38:11.946Z,46.52
2022-08-20T14:40:38.450Z,47.00
2022-08-20T14:43:05.029Z,50.61
2022-08-20T14:45:31.598Z,49.83
2022-08-20T14:47:59.112Z,53.26
2022-08-20T14:50:30.487Z,52.54
2022-08-20T14:52:57.951Z,50.96
2022-08-20T14:55:28.071Z,50.43
2022-08-20T14:57:55.215Z,50.30
2022-08-20T15:00:25.730Z,52.26
2022-08-20T15:02:52.474Z,51.31
2022-08-20T15:05:19.604Z,50.25
2022-08-20T15:07:49.435Z,52.25
2022-08-20T15:10:36.588Z,51.67
2022-08-20T15:13:03.056Z,52.04
2022-08-20T15:15:29.560Z,51.40
2022-08-20T15:18:02.618Z,51.52
2022-08-20T15:20:32.107Z,51.84
2022-08-20T15:22:59.880Z,51.71
2022-08-20T15:25:36.651Z,52.77
2022-08-20T15:28:06.802Z,52.44
2022-08-20T15:30:33.403Z,51.13
2022-08-20T15:33:00.367Z,52.10
2022-08-20T15:35:28.851Z,51.25
2022-08-20T15:37:57.707Z,51.37
2022-08-20T15:40:28.397Z,51.89
2022-08-20T15:42:57.069Z,52.25
2022-08-20T15:45:23.709Z,53.33
2022-08-20T15:47:59.791Z,55.16
2022-08-20T15:50:48.385Z,55.18
2022-08-20T15:53:27.336Z,54.71
2022-08-20T15:56:32.604Z,54.97
2022-08-20T15:59:20.359Z,55.45
2022-08-20T16:01:53.744Z,57.55
2022-08-20T16:04:23.260Z,57.63
2022-08-20T16:06:53.595Z,57.23
2022-08-20T16:09:19.990Z,57.96
2022-08-20T16:12:13.316Z,58.18
2022-08-20T16:14:47.397Z,56.91
2022-08-20T16:17:24.636Z,56.53
2022-08-20T16:20:10.278Z,58.61
2022-08-20T16:22:42.072Z,58.80
2022-08-20T16:25:09.865Z,58.79
2022-08-20T16:27:49.648Z,58.47
2022-08-20T16:30:42.689Z,60.32
2022-08-20T16:33:22.361Z,59.84
2022-08-20T16:35:54.706Z,59.98
2022-08-20T16:38:38.844Z,59.85
2022-08-20T16:41:30.860Z,59.89
2022-08-20T16:44:04.986Z,58.27
2022-08-20T16:46:37.962Z,60.16
2022-08-20T16:49:14.009Z,60.17
2022-08-20T16:51:48.189Z,60.06
2022-08-20T16:54:18.927Z,58.75
2022-08-20T16:57:05.190Z,59.71
2022-08-20T16:59:32.886Z,59.30
2022-08-20T17:02:10.729Z,57.89
2022-08-20T17:04:50.499Z,56.26
2022-08-20T17:07:43.555Z,57.75
2022-08-20T17:10:20.488Z,59.14
2022-08-20T17:13:00.278Z,59.06
2022-08-20T17:15:31.720Z,58.73
2022-08-20T17:18:17.106Z,59.53
2022-08-20T17:20:45.193Z,58.97
2022-08-20T17:23:17.951Z,60.41
2022-08-20T17:25:54.488Z,58.57
2022-08-20T17:28:23.272Z,61.59
2022-08-20T17:30:50.043Z,61.47
2022-08-20T17:33:25.780Z,61.88
2022-08-20T17:35:55.532Z,61.58
2022-08-20T17:38:36.685Z,61.48
2022-08-20T17:41:17.232Z,60.97
2022-08-20T17:43:44.518Z,62.10
2022-08-20T17:46:18.973Z,60.01
2022-08-20T17:48:48.032Z,61.22
2022-08-20T17:51:22.080Z,61.44
2022-08-20T17:53:57.299Z,62.31
2022-08-20T17:56:34.433Z,62.15
2022-08-20T17:59:10.425Z,62.07
2022-08-20T18:01:37.215Z,62.12
2022-08-20T18:04:03.964Z,62.65
2022-08-20T18:06:57.520Z,62.92
2022-08-20T18:09:35.797Z,62.64
2022-08-20T18:12:34.324Z,63.59
2022-08-20T18:15:23.634Z,63.91
2022-08-20T18:18:16.247Z,63.58
2022-08-20T18:20:42.654Z,64.32
2022-08-20T18:23:31.180Z,64.39
2022-08-20T18:26:06.041Z,64.57
2022-08-20T18:28:38.836Z,64.88
2022-08-20T18:31:08.947Z,65.22
2022-08-20T18:33:43.442Z,65.35
2022-08-20T18:36:19.010Z,65.50
2022-08-20T18:39:04.287Z,65.41
2022-08-20T18:41:34.702Z,65.69
2022-08-20T18:44:27.034Z,65.67
2022-08-20T18:46:59.656Z,65.77
2022-08-20T18:49:35.455Z,65.41
2022-08-20T18:52:10.259Z,66.07
2022-08-20T18:54:37.934Z,66.00
2022-08-20T18:57:08.737Z,66.14
2022-08-20T18:59:42.836Z,66.56
2022-08-20T19:02:23.587Z,66.62
2022-08-20T19:05:02.051Z,66.75
2022-08-20T19:07:45.716Z,66.91
2022-08-20T19:10:40.453Z,67.16
2022-08-20T19:13:16.418Z,67.30
2022-08-20T19:15:47.350Z,67.32
2022-08-20T19:18:30.007Z,67.36
2022-08-20T19:20:59.292Z,67.86
2022-08-20T19:23:28.390Z,67.81
2022-08-20T19:25:59.536Z,68.26
2022-08-20T19:28:32.013Z,68.02
2022-08-20T19:31:13.639Z,68.77
2022-08-20T19:33:44.178Z,68.19
2022-08-20T19:36:19.397Z,69.08
2022-08-20T19:38:52.416Z,69.30
2022-08-20T19:42:00.316Z,69.32
2022-08-20T19:44:52.922Z,69.21
2022-08-20T19:47:40.790Z,69.31
2022-08-20T19:50:17.196Z,69.28
2022-08-20T19:53:18.844Z,69.85
2022-08-20T19:56:14.307Z,69.68
2022-08-20T19:58:41.066Z,69.91
2022-08-20T20:01:17.515Z,70.06
2022-08-20T20:03:59.350Z,70.17
2022-08-20T20:06:27.108Z,70.29
2022-08-20T20:08:58.484Z,70.46
2022-08-20T20:11:36.256Z,70.73
2022-08-20T20:14:09.131Z,70.84
2022-08-20T20:16:38.063Z,70.94
2022-08-20T20:19:25.710Z,70.93
2022-08-20T20:22:19.767Z,71.00
2022-08-20T20:24:56.984Z,71.17
2022-08-20T20:27:26.188Z,71.28
2022-08-20T20:30:04.219Z,71.58
2022-08-20T20:32:33.538Z,71.56
2022-08-20T20:35:02.504Z,71.83
2022-08-20T20:37:49.656Z,71.72
2022-08-20T20:40:43.905Z,71.85
2022-08-20T20:43:23.350Z,71.98
2022-08-20T20:46:00.477Z,71.96
2022-08-20T20:48:33.801Z,72.18
2022-08-20T20:51:11.797Z,72.31
2022-08-20T20:53:55.104Z,72.09
2022-08-20T20:56:41.236Z,72.35
2022-08-20T20:59:09.097Z,72.46
2022-08-20T21:01:48.274Z,72.43
2022-08-20T21:04:23.970Z,72.48
2022-08-20T21:06:53.243Z,72.76
2022-08-20T21:09:21.377Z,72.60
2022-08-20T21:11:48.877Z,72.76
2022-08-20T21:14:16.060Z,72.84
2022-08-20T21:16:43.953Z,73.02
2022-08-20T21:19:11.083Z,73.04
2022-08-20T21:21:38.814Z,73.18
2022-08-20T21:24:06.627Z,73.42
2022-08-20T21:26:33.661Z,73.43
2022-08-20T21:29:00.347Z,73.34
2022-08-20T21:31:32.627Z,73.40
2022-08-20T21:33:59.380Z,73.38
2022-08-20T21:36:25.844Z,73.36
2022-08-20T21:38:52.414Z,73.60
2022-08-20T21:41:19.448Z,73.75
2022-08-20T21:43:56.259Z,74.05
2022-08-20T21:46:24.772Z,73.85
2022-08-20T21:48:51.571Z,73.88
2022-08-20T21:51:18.037Z,73.83
2022-08-20T21:53:44.530Z,74.11
2022-08-20T21:56:11.191Z,74.14
2022-08-20T21:58:38.459Z,74.34
2022-08-20T22:01:06.985Z,74.51
2022-08-20T22:03:38.545Z,74.44
2022-08-20T22:06:07.851Z,74.63
2022-08-20T22:08:35.036Z,74.69
2022-08-20T22:11:02.286Z,74.40
2022-08-20T22:13:31.784Z,74.72
2022-08-20T22:15:59.879Z,74.73
2022-08-20T22:18:26.480Z,74.82
2022-08-20T22:20:53.363Z,74.76
2022-08-20T22:23:19.999Z,74.57
2022-08-20T22:25:46.691Z,74.90
2022-08-20T22:28:13.167Z,74.98
2022-08-20T22:30:42.359Z,75.01
2022-08-20T22:33:12.585Z,74.97
2022-08-20T22:35:45.006Z,75.15
2022-08-20T22:38:11.544Z,75.00
2022-08-20T22:40:38.063Z,75.08
2022-08-20T22:43:04.538Z,75.32
2022-08-20T22:45:31.433Z,75.35
2022-08-20T22:47:57.989Z,75.24
2022-08-20T22:50:25.162Z,75.41
2022-08-20T22:52:52.445Z,75.37
2022-08-20T22:55:19.369Z,75.66
2022-08-20T22:57:46.809Z,75.22
2022-08-20T23:00:17.156Z,75.22
2022-08-20T23:02:46.585Z,75.34
2022-08-20T23:05:17.025Z,75.28
2022-08-20T23:07:43.637Z,75.63
2022-08-20T23:10:10.091Z,75.53
2022-08-20T23:12:37.506Z,75.73
2022-08-20T23:15:05.643Z,76.04
2022-08-20T23:17:33.283Z,75.78
2022-08-20T23:19:59.843Z,75.86
2022-08-20T23:22:26.326Z,75.82
2022-08-20T23:24:54.597Z,75.80
2022-08-20T23:27:23.723Z,75.72
2022-08-20T23:29:50.230Z,75.88
2022-08-20T23:32:17.128Z,75.83
2022-08-20T23:34:44.033Z,75.73
2022-08-20T23:37:11.227Z,75.96
2022-08-20T23:39:38.007Z,75.82
2022-08-20T23:42:04.661Z,75.80
2022-08-20T23:44:31.146Z,75.67
2022-08-20T23:47:01.953Z,76.02
2022-08-20T23:49:29.402Z,76.14
2022-08-20T23:51:57.693Z,76.28
2022-08-20T23:54:24.215Z,76.43
2022-08-20T23:56:50.718Z,76.14
2022-08-20T23:59:17.640Z,76.09
